Latest Areodrome Forecast (TAF)

TAF VMMC 221101Z 2212/2318 VRB03KT 7000 FEW035 TEMPO 2212/2306 4000 BR BECMG 2303/2306 09012KT=

Decoded TAF in plain language
Contents of Report Code Information
Report Type TAF Aerodrome Forecasts
Location VMMC Macao, China
Issuing Time 221101Z 22/01/2018 11:01 UTC
Period of Validity of Forecast 2212/2318 Between 22nd 12:00 UTC and 23rd 18:00 UTC
Surface Wind Direction and Speed VRB03KT variable direction, speed 3 knots
Visibility 7000 7 kilometres
Weather    
Cloud FEW035 amount 1-2 oktas, base 3500 feet
Expected Significant ChangesTEMPO 2212/2306 4000 BRtemporarily between 22nd 12:00 UTC and 23rd 06:00 UTC
visibility: 4000 metres
weather: mist
 BECMG 2303/2306 09012KTbecoming between 23rd 03:00 UTC and 23rd 06:00 UTC
wind: mean direction 090 degrees, speed 12 knots

OTHER INTERNATIONAL AIRPORTS:
Weather Forecast (TAF)   Weather Report (METAR)